Terminal Aerodrome Forecast
Issued by NWS

Home | Current Version | Previous Version | Text Only | Print | Product List | Glossary On
Versions: 1 2 3 4 5 6 7 8 9 10 11 12 13 14 15 16 17 18 19 20 21 22 23 24 25 26 27 28
000
FTUS41 KBUF 070539
TAFIAG
TAF
KIAG 070539Z 0706/0806 18005KT P6SM FEW200
     FM071500 21014KT P6SM FEW250
     FM072100 23015G22KT 5SM SHRA VCTS BKN090CB
     FM072300 24011KT 3SM -TSRA OVC060CB
     FM080100 28010KT 4SM -SHRA OVC040
     FM080300 29010KT 5SM BR VCSH OVC007=

USA.gov is the U.S. government's official web portal to all federal, state and local government web resources and services.